Time;durP1;ratioP1;P1;durP2;ratioP2;P2;SDS_P1;SDS_P2;PMS_P1;PMS_P2;Temp;Humidity;BMP_temperature;BMP_pressure;BME280_temperature;BME280_humidity;BME280_pressure;Samples;Min_cycle;Max_cycle;Signal;HPM_P1;HPM_P2
2020/12/20 00:02:03;;;;;;;7.77;7.00;;;9.00;99.90;;;;;;10303252;28;20220;-81
2020/12/20 00:07:07;;;;;;;8.30;7.57;;;9.00;99.90;;;;;;10305075;28;20219;-80
2020/12/20 00:12:10;;;;;;;7.70;7.00;;;9.00;99.90;;;;;;10291956;28;20315;-80
2020/12/20 00:17:12;;;;;;;7.70;6.90;;;9.00;99.90;;;;;;10283510;28;20203;-80
2020/12/20 00:22:14;;;;;;;7.30;6.60;;;9.00;99.90;;;;;;10278989;28;20232;-81
2020/12/20 00:27:17;;;;;;;7.77;6.97;;;9.00;99.90;;;;;;10231212;29;20200;-79
2020/12/20 00:32:19;;;;;;;6.90;6.30;;;9.00;99.90;;;;;;10255965;28;20220;-80
2020/12/20 00:37:21;;;;;;;8.10;7.40;;;8.90;99.90;;;;;;10270346;28;20210;-80
2020/12/20 00:42:23;;;;;;;7.60;6.77;;;8.90;99.90;;;;;;10286738;28;20219;-78
2020/12/20 00:47:25;;;;;;;6.57;6.03;;;9.00;99.90;;;;;;10252470;28;20234;-79
2020/12/20 00:52:27;;;;;;;7.73;7.03;;;8.90;99.90;;;;;;10287449;28;20207;-79
2020/12/20 00:57:33;;;;;;;7.83;7.13;;;8.90;99.90;;;;;;10270460;28;20176;-78
2020/12/20 01:02:36;;;;;;;7.40;6.63;;;9.00;99.90;;;;;;10270492;28;20267;-82
2020/12/20 01:07:37;;;;;;;8.37;7.00;;;9.00;99.90;;;;;;10246366;29;20207;-80
2020/12/20 01:12:40;;;;;;;7.90;7.10;;;9.00;99.90;;;;;;10214860;28;20224;-81
2020/12/20 01:17:50;;;;;;;7.67;6.93;;;9.00;99.90;;;;;;10237302;29;20189;-79
2020/12/20 01:22:54;;;;;;;7.17;6.50;;;9.00;99.90;;;;;;10239211;29;20228;-80
2020/12/20 01:27:57;;;;;;;7.47;6.77;;;9.00;99.90;;;;;;10256674;28;20935;-81
2020/12/20 01:33:07;;;;;;;6.27;5.77;;;9.00;99.90;;;;;;10239395;29;20212;-78
2020/12/20 01:38:39;;;;;;;6.63;6.03;;;9.00;99.90;;;;;;10268718;28;20200;-81
2020/12/20 01:43:48;;;;;;;7.50;6.80;;;9.00;99.90;;;;;;10296289;28;20239;-80
2020/12/20 01:48:57;;;;;;;7.10;6.40;;;8.90;99.90;;;;;;10285495;28;20192;-80
2020/12/20 01:53:59;;;;;;;7.10;6.40;;;8.90;99.90;;;;;;10287830;28;20654;-80
2020/12/20 01:59:05;;;;;;;6.77;6.17;;;8.90;99.90;;;;;;10315864;28;20222;-80
2020/12/20 02:04:15;;;;;;;6.53;6.00;;;8.90;99.90;;;;;;10278839;28;20679;-79
2020/12/20 02:09:22;;;;;;;7.27;6.57;;;8.80;99.90;;;;;;10283334;28;20665;-78
2020/12/20 02:14:26;;;;;;;6.60;6.00;;;8.80;99.90;;;;;;10281235;28;20266;-80
2020/12/20 02:19:35;;;;;;;7.43;6.70;;;8.90;99.90;;;;;;10281619;28;20267;-79
2020/12/20 02:24:54;;;;;;;7.07;6.30;;;8.90;99.90;;;;;;10281085;28;20184;-80
2020/12/20 02:30:14;;;;;;;7.00;6.40;;;8.90;99.90;;;;;;10298596;28;20208;-78
2020/12/20 02:35:16;;;;;;;6.53;6.00;;;8.90;99.90;;;;;;10281515;28;20278;-80
2020/12/20 02:40:22;;;;;;;5.90;5.40;;;8.90;99.90;;;;;;10280793;28;20235;-80
2020/12/20 02:45:36;;;;;;;6.67;6.07;;;8.90;99.90;;;;;;10264977;28;20195;-82
2020/12/20 02:50:39;;;;;;;7.57;6.77;;;8.90;99.90;;;;;;10281421;28;20240;-79
2020/12/20 02:55:42;;;;;;;7.40;6.70;;;8.90;99.90;;;;;;10298615;28;20196;-78
2020/12/20 03:00:48;;;;;;;6.60;5.87;;;8.90;99.90;;;;;;10284563;28;20712;-81
2020/12/20 03:05:51;;;;;;;6.57;5.97;;;8.90;99.90;;;;;;10284986;28;20214;-82
2020/12/20 03:10:54;;;;;;;6.33;5.70;;;8.90;99.90;;;;;;10269628;28;20219;-78
2020/12/20 03:15:56;;;;;;;6.47;5.90;;;8.90;99.90;;;;;;10281347;28;20196;-81
2020/12/20 03:21:04;;;;;;;7.07;6.13;;;8.90;99.90;;;;;;10286689;28;20231;-78
2020/12/20 03:26:18;;;;;;;6.73;5.60;;;8.90;99.90;;;;;;10283578;28;20193;-78
2020/12/20 03:31:32;;;;;;;6.53;5.93;;;8.90;99.90;;;;;;10263458;28;20222;-78
2020/12/20 03:36:40;;;;;;;6.70;6.10;;;8.90;99.90;;;;;;10275657;28;20274;-79
2020/12/20 03:41:45;;;;;;;6.77;6.07;;;8.90;99.90;;;;;;10269505;28;20220;-79
2020/12/20 03:46:51;;;;;;;6.73;6.00;;;9.00;99.90;;;;;;10231312;28;20684;-80
2020/12/20 03:51:55;;;;;;;6.90;6.30;;;9.00;99.90;;;;;;10256648;28;20212;-80
2020/12/20 03:57:08;;;;;;;7.10;6.53;;;9.10;99.90;;;;;;10270341;28;20196;-81
2020/12/20 04:02:13;;;;;;;7.53;6.90;;;9.10;99.90;;;;;;10266512;28;20224;-81
2020/12/20 04:07:18;;;;;;;8.53;6.90;;;9.10;99.90;;;;;;10279825;28;20204;-81
2020/12/20 04:12:27;;;;;;;7.47;6.70;;;9.20;99.90;;;;;;10261473;28;20227;-81
2020/12/20 04:17:32;;;;;;;7.23;6.23;;;9.20;99.90;;;;;;10254531;28;20204;-78
2020/12/20 04:22:34;;;;;;;6.83;6.13;;;9.20;99.90;;;;;;10259005;28;20219;-81
2020/12/20 04:28:00;;;;;;;7.30;6.57;;;9.20;99.90;;;;;;10233972;28;20196;-81
2020/12/20 04:33:03;;;;;;;8.30;7.50;;;9.10;99.90;;;;;;10266304;28;20218;-78
2020/12/20 04:38:12;;;;;;;7.13;6.43;;;9.10;99.90;;;;;;10246551;28;20263;-78
2020/12/20 04:43:21;;;;;;;6.47;5.87;;;9.10;99.90;;;;;;10244328;28;20227;-80
2020/12/20 04:48:34;;;;;;;6.60;6.00;;;9.20;99.90;;;;;;10275506;28;20176;-80
2020/12/20 04:53:36;;;;;;;6.73;6.00;;;9.10;99.90;;;;;;10276465;28;20715;-78
2020/12/20 04:58:41;;;;;;;7.80;7.10;;;9.10;99.90;;;;;;10261614;28;20223;-78
2020/12/20 05:03:43;;;;;;;7.67;6.97;;;9.00;99.90;;;;;;10276575;28;20227;-81
2020/12/20 05:08:46;;;;;;;7.07;6.37;;;8.90;99.90;;;;;;10261237;28;20298;-80
2020/12/20 05:13:53;;;;;;;6.40;5.90;;;8.90;99.90;;;;;;10276751;28;20224;-80
2020/12/20 05:19:00;;;;;;;7.30;6.70;;;8.80;99.90;;;;;;10276101;28;20180;-79
2020/12/20 05:24:25;;;;;;;7.10;6.50;;;8.80;99.90;;;;;;10273111;28;20231;-81
2020/12/20 05:29:29;;;;;;;7.80;7.03;;;8.80;99.90;;;;;;10276141;28;20191;-80
2020/12/20 05:34:36;;;;;;;7.43;6.80;;;8.80;99.90;;;;;;10275319;28;20216;-80
2020/12/20 05:39:38;;;;;;;8.77;7.87;;;8.80;99.90;;;;;;10275582;28;20204;-81
2020/12/20 05:45:05;;;;;;;14.43;8.97;;;8.80;99.90;;;;;;10275162;28;20231;-80
2020/12/20 05:50:12;;;;;;;8.43;7.60;;;8.80;99.90;;;;;;10274942;28;20282;-80
2020/12/20 05:55:15;;;;;;;9.40;7.07;;;8.80;99.90;;;;;;10275804;28;20204;-79
2020/12/20 06:00:17;;;;;;;7.53;6.83;;;8.80;99.90;;;;;;10259961;28;20319;-78
2020/12/20 06:05:19;;;;;;;7.67;6.97;;;8.80;99.90;;;;;;10292789;28;20665;-81
2020/12/20 06:10:27;;;;;;;8.73;7.93;;;8.80;99.90;;;;;;10242809;29;20216;-81
2020/12/20 06:15:32;;;;;;;8.17;7.40;;;8.80;99.90;;;;;;10226798;29;20228;-81
2020/12/20 06:20:41;;;;;;;10.17;9.20;;;8.80;99.90;;;;;;10260345;28;20731;-80
2020/12/20 06:25:44;;;;;;;9.87;8.97;;;8.80;99.90;;;;;;10261277;29;20181;-80
2020/12/20 06:30:47;;;;;;;8.70;7.90;;;8.80;99.90;;;;;;10260112;29;20580;-81
2020/12/20 06:35:51;;;;;;;8.20;7.27;;;8.80;99.90;;;;;;10272577;28;20196;-78
2020/12/20 06:40:53;;;;;;;9.47;8.57;;;8.70;99.90;;;;;;10291753;28;20326;-78
2020/12/20 06:45:55;;;;;;;25.70;19.30;;;8.70;99.90;;;;;;10296901;28;20177;-80
2020/12/20 06:50:57;;;;;;;36.50;25.50;;;8.70;99.90;;;;;;10279887;28;20681;-80
2020/12/20 06:56:13;;;;;;;9.60;8.60;;;8.70;99.90;;;;;;10298199;28;20231;-80
2020/12/20 07:01:35;;;;;;;15.13;13.07;;;8.70;99.90;;;;;;10280318;28;20434;-79
2020/12/20 07:06:37;;;;;;;13.77;11.57;;;8.70;99.90;;;;;;10297504;28;20196;-81
2020/12/20 07:11:47;;;;;;;8.87;8.07;;;8.70;99.90;;;;;;10297291;28;20212;-79
2020/12/20 07:16:51;;;;;;;10.93;9.93;;;8.70;99.90;;;;;;10296756;28;20198;-79
2020/12/20 07:22:01;;;;;;;7.90;6.90;;;8.70;99.90;;;;;;10280229;28;20258;-80
2020/12/20 07:27:04;;;;;;;6.93;6.23;;;8.70;99.90;;;;;;10297886;28;20316;-79
2020/12/20 07:32:07;;;;;;;7.10;6.50;;;8.70;99.90;;;;;;10295793;28;20250;-79
2020/12/20 07:37:12;;;;;;;6.87;6.27;;;8.70;99.90;;;;;;10273933;28;20608;-80
2020/12/20 07:42:15;;;;;;;6.70;6.10;;;8.70;99.90;;;;;;10255422;29;20224;-78
2020/12/20 07:47:24;;;;;;;6.53;6.03;;;8.70;99.90;;;;;;10256277;29;20173;-78
2020/12/20 07:52:26;;;;;;;8.63;7.73;;;8.70;99.90;;;;;;10255964;29;20224;-81
2020/12/20 07:57:28;;;;;;;10.80;9.47;;;8.70;99.90;;;;;;10223228;29;20291;-80
2020/12/20 08:02:30;;;;;;;9.67;8.77;;;8.70;99.90;;;;;;10238708;29;20740;-79
2020/12/20 08:07:32;;;;;;;8.73;7.57;;;8.80;99.90;;;;;;10281706;28;20664;-80
2020/12/20 08:12:34;;;;;;;7.60;6.90;;;8.80;99.90;;;;;;10296248;28;20235;-80
2020/12/20 08:17:36;;;;;;;8.37;7.67;;;8.90;99.90;;;;;;10277592;28;20211;-78
2020/12/20 08:22:39;;;;;;;7.20;6.50;;;9.00;99.90;;;;;;10294633;28;20251;-80
2020/12/20 08:27:42;;;;;;;7.30;6.60;;;9.10;99.90;;;;;;10295780;28;20192;-80
2020/12/20 08:32:45;;;;;;;7.10;6.50;;;9.20;99.90;;;;;;10294547;28;20900;-79
2020/12/20 08:37:53;;;;;;;6.73;6.10;;;9.30;99.90;;;;;;10249695;29;20567;-80
2020/12/20 08:42:58;;;;;;;8.70;7.83;;;9.30;99.90;;;;;;10251530;29;20228;-78
2020/12/20 08:48:06;;;;;;;7.13;6.53;;;9.40;99.90;;;;;;10236937;29;20567;-81
2020/12/20 08:53:09;;;;;;;7.73;7.03;;;9.50;99.90;;;;;;10252916;29;20275;-80
2020/12/20 08:58:11;;;;;;;7.47;6.80;;;9.50;99.90;;;;;;10253397;29;20185;-79
2020/12/20 09:03:13;;;;;;;7.10;6.50;;;9.60;99.70;;;;;;10253010;29;20577;-78
2020/12/20 09:08:19;;;;;;;7.57;6.87;;;9.60;99.50;;;;;;10236621;29;20228;-80
2020/12/20 09:13:25;;;;;;;8.20;7.40;;;9.60;99.20;;;;;;10253604;29;20701;-80
2020/12/20 09:18:29;;;;;;;8.63;7.73;;;9.60;99.30;;;;;;10253932;29;20199;-79
2020/12/20 09:23:56;;;;;;;7.70;6.80;;;9.60;99.90;;;;;;10235457;29;20598;-80
2020/12/20 09:28:58;;;;;;;9.53;8.57;;;9.70;99.90;;;;;;10254270;29;20630;-79
2020/12/20 09:34:11;;;;;;;8.60;7.80;;;9.80;99.90;;;;;;10221349;29;20266;-78
2020/12/20 09:39:17;;;;;;;8.90;8.10;;;9.90;99.90;;;;;;10266826;28;20258;-80
2020/12/20 09:44:19;;;;;;;8.40;7.60;;;10.00;98.20;;;;;;10300891;28;20243;-81
2020/12/20 09:49:24;;;;;;;9.63;8.43;;;10.10;98.60;;;;;;10303002;28;20184;-79
2020/12/20 09:54:25;;;;;;;8.57;7.77;;;10.10;98.50;;;;;;10289007;28;20266;-79
2020/12/20 09:59:27;;;;;;;8.73;7.87;;;10.20;99.20;;;;;;10300724;28;20263;-79
2020/12/20 10:04:34;;;;;;;9.97;9.00;;;10.30;99.70;;;;;;10298498;28;20223;-79
2020/12/20 10:09:36;;;;;;;10.33;8.37;;;10.40;99.40;;;;;;10259842;29;20200;-79
2020/12/20 10:14:37;;;;;;;10.27;8.47;;;10.60;98.70;;;;;;10260493;29;20212;-81
2020/12/20 10:19:40;;;;;;;9.10;7.63;;;10.60;98.80;;;;;;10260342;29;20215;-79
2020/12/20 10:24:41;;;;;;;8.60;7.80;;;10.80;99.10;;;;;;10262882;28;20233;-82
2020/12/20 10:29:43;;;;;;;9.17;8.17;;;10.80;98.40;;;;;;10262258;29;20236;-81
2020/12/20 10:34:47;;;;;;;8.53;7.73;;;10.90;98.80;;;;;;10270639;28;20227;-82
2020/12/20 10:39:49;;;;;;;8.73;7.40;;;10.90;99.10;;;;;;10301222;28;20223;-81
2020/12/20 10:44:51;;;;;;;9.60;8.60;;;11.00;98.70;;;;;;10283310;28;20199;-80
2020/12/20 10:49:54;;;;;;;8.90;8.00;;;11.00;98.90;;;;;;10301271;28;20661;-81
2020/12/20 10:54:56;;;;;;;7.53;6.83;;;11.00;97.80;;;;;;10300934;28;20196;-82
2020/12/20 10:59:58;;;;;;;9.23;8.23;;;11.00;98.90;;;;;;10283663;28;20270;-82
2020/12/20 11:05:00;;;;;;;8.40;7.60;;;11.00;99.30;;;;;;10279158;28;20559;-81
2020/12/20 11:10:02;;;;;;;8.70;7.80;;;11.10;99.40;;;;;;10244998;29;20199;-81
2020/12/20 11:15:04;;;;;;;7.70;7.00;;;11.10;99.70;;;;;;10281509;29;20232;-80
2020/12/20 11:20:06;;;;;;;9.57;8.63;;;11.20;99.10;;;;;;10243334;28;20651;-82
2020/12/20 11:25:08;;;;;;;9.77;8.87;;;11.20;99.90;;;;;;10258715;29;20716;-82
2020/12/20 11:30:10;;;;;;;8.57;7.77;;;11.30;99.90;;;;;;10257987;28;20228;-81
2020/12/20 11:35:14;;;;;;;8.37;7.57;;;11.30;99.00;;;;;;10265380;28;20287;-80
2020/12/20 11:40:16;;;;;;;8.40;7.70;;;11.40;99.50;;;;;;10300441;28;20645;-82
2020/12/20 11:45:19;;;;;;;7.80;6.70;;;11.50;99.50;;;;;;10297062;28;20196;-80
2020/12/20 11:50:21;;;;;;;8.50;7.70;;;11.60;99.70;;;;;;10279050;28;20219;-81
2020/12/20 11:55:23;;;;;;;8.60;7.60;;;11.60;98.80;;;;;;10280697;28;20210;-81
2020/12/20 12:00:26;;;;;;;8.40;7.60;;;11.70;99.40;;;;;;10263214;28;20228;-81
2020/12/20 12:05:28;;;;;;;9.47;8.57;;;11.70;99.90;;;;;;10279281;28;20286;-81
2020/12/20 12:10:30;;;;;;;11.27;10.17;;;11.70;99.90;;;;;;10298349;28;20286;-81
2020/12/20 12:15:33;;;;;;;9.63;8.70;;;11.70;99.90;;;;;;10296180;28;20183;-80
2020/12/20 12:20:47;;;;;;;10.67;9.57;;;11.70;99.90;;;;;;10296271;28;20227;-80
2020/12/20 12:25:50;;;;;;;11.43;10.40;;;11.70;99.90;;;;;;10262690;28;20207;-81
2020/12/20 12:30:51;;;;;;;10.47;8.70;;;11.70;99.90;;;;;;10262444;28;20219;-81
2020/12/20 12:35:54;;;;;;;9.80;8.30;;;11.60;99.10;;;;;;10279960;28;20201;-79
2020/12/20 12:40:58;;;;;;;8.90;8.07;;;11.70;98.70;;;;;;10246099;28;20227;-81
2020/12/20 12:45:59;;;;;;;10.30;9.30;;;11.70;98.20;;;;;;10271563;28;20200;-80
2020/12/20 12:51:02;;;;;;;10.00;9.00;;;11.70;98.00;;;;;;10297059;28;20271;-81
2020/12/20 12:56:09;;;;;;;9.43;8.43;;;11.70;98.30;;;;;;10297870;28;20267;-81
2020/12/20 13:01:11;;;;;;;9.17;8.27;;;11.70;98.50;;;;;;10307689;28;20224;-81
2020/12/20 13:06:17;;;;;;;9.23;8.17;;;11.60;98.70;;;;;;10261307;28;20208;-81
2020/12/20 13:11:26;;;;;;;10.33;9.10;;;11.60;99.40;;;;;;10260913;28;20307;-81
2020/12/20 13:16:27;;;;;;;9.70;8.80;;;11.50;99.40;;;;;;10255062;28;20200;-81
2020/12/20 13:21:30;;;;;;;9.73;8.80;;;11.50;99.00;;;;;;10308396;28;20238;-81
2020/12/20 13:26:31;;;;;;;10.53;9.53;;;11.50;99.10;;;;;;10241480;28;20231;-81
2020/12/20 13:31:33;;;;;;;10.57;9.53;;;11.50;99.30;;;;;;10243539;28;20741;-80
2020/12/20 13:36:35;;;;;;;9.17;8.30;;;11.40;99.20;;;;;;10290480;28;20212;-81
2020/12/20 13:41:37;;;;;;;12.87;9.17;;;11.40;99.80;;;;;;10254099;28;20609;-81
2020/12/20 13:46:39;;;;;;;9.60;8.70;;;11.30;99.90;;;;;;10235543;29;20299;-81
2020/12/20 13:51:41;;;;;;;11.57;9.50;;;11.30;99.90;;;;;;10228361;29;20232;-80
2020/12/20 13:56:43;;;;;;;10.40;9.33;;;11.20;99.90;;;;;;10234461;28;20716;-79
2020/12/20 14:01:50;;;;;;;12.10;10.23;;;11.20;99.90;;;;;;10279020;28;20329;-81
2020/12/20 14:06:53;;;;;;;10.30;9.30;;;11.20;99.90;;;;;;10287474;28;20266;-81
2020/12/20 14:11:57;;;;;;;10.60;9.50;;;11.20;99.90;;;;;;10264001;28;20223;-80
2020/12/20 14:16:58;;;;;;;11.00;9.90;;;11.20;99.90;;;;;;10257228;28;20212;-81
2020/12/20 14:22:01;;;;;;;11.97;9.60;;;11.20;99.90;;;;;;10289500;28;20310;-81
2020/12/20 14:27:03;;;;;;;10.90;9.47;;;11.20;99.90;;;;;;10275543;28;20725;-80
2020/12/20 14:32:05;;;;;;;10.53;9.50;;;11.20;99.70;;;;;;10259349;28;20219;-80
2020/12/20 14:37:07;;;;;;;11.77;10.30;;;11.20;99.50;;;;;;10261248;28;20212;-81
2020/12/20 14:42:09;;;;;;;11.03;9.90;;;11.30;99.90;;;;;;10275949;28;20637;-82
2020/12/20 14:47:12;;;;;;;11.97;9.60;;;11.20;99.90;;;;;;10280589;28;20217;-81
2020/12/20 14:52:15;;;;;;;11.00;9.87;;;11.20;99.90;;;;;;10292138;28;20216;-82
2020/12/20 14:57:16;;;;;;;11.60;10.40;;;11.10;99.90;;;;;;10290548;28;20212;-79
2020/12/20 15:02:18;;;;;;;12.07;10.87;;;11.00;99.90;;;;;;10292661;28;20227;-80
2020/12/20 15:07:21;;;;;;;23.93;16.30;;;11.00;99.90;;;;;;10292024;28;20210;-81
2020/12/20 15:12:22;;;;;;;15.23;12.20;;;11.00;99.90;;;;;;10267735;28;20220;-81
2020/12/20 15:17:24;;;;;;;11.67;10.57;;;11.00;99.90;;;;;;10251718;29;20193;-81
2020/12/20 15:22:26;;;;;;;12.47;11.07;;;10.90;99.90;;;;;;10234638;29;20257;-81
2020/12/20 15:27:28;;;;;;;12.40;11.13;;;10.90;99.90;;;;;;10252068;28;20208;-81
2020/12/20 15:32:30;;;;;;;11.87;10.67;;;10.90;99.90;;;;;;10218410;28;20307;-80
2020/12/20 15:37:32;;;;;;;13.70;12.33;;;10.90;99.90;;;;;;10253337;28;20213;-80
2020/12/20 15:42:34;;;;;;;11.57;10.37;;;10.80;99.90;;;;;;10234495;29;20706;-80
2020/12/20 15:47:35;;;;;;;12.10;10.63;;;10.80;99.90;;;;;;10253889;29;20306;-82
2020/12/20 15:52:43;;;;;;;13.10;11.20;;;10.80;99.90;;;;;;10256286;29;20620;-81
2020/12/20 15:57:44;;;;;;;12.03;10.93;;;10.80;99.90;;;;;;10236222;29;20673;-81
2020/12/20 16:02:46;;;;;;;12.23;10.73;;;10.80;99.90;;;;;;10255276;29;20224;-81
2020/12/20 16:07:48;;;;;;;12.67;11.07;;;10.70;99.90;;;;;;10265592;28;20219;-80
2020/12/20 16:12:50;;;;;;;12.77;11.47;;;10.70;99.90;;;;;;10285762;28;20635;-80
2020/12/20 16:17:52;;;;;;;12.90;11.60;;;10.70;99.90;;;;;;10324897;28;20199;-80
2020/12/20 16:22:54;;;;;;;12.23;11.03;;;10.70;99.90;;;;;;10326442;28;20227;-79
2020/12/20 16:27:56;;;;;;;11.80;10.60;;;10.60;99.90;;;;;;10309864;28;20206;-81
2020/12/20 16:32:57;;;;;;;13.30;11.90;;;10.70;99.90;;;;;;10328147;28;20230;-80
2020/12/20 16:38:01;;;;;;;12.03;10.67;;;10.60;99.90;;;;;;10298175;28;20212;-79
2020/12/20 16:43:02;;;;;;;14.20;10.50;;;10.70;99.90;;;;;;10255100;28;21055;-80
2020/12/20 16:48:04;;;;;;;12.07;10.77;;;10.70;99.90;;;;;;10248134;28;20700;-80
2020/12/20 16:53:07;;;;;;;12.53;11.10;;;10.70;99.90;;;;;;10241785;28;20287;-81
2020/12/20 16:58:08;;;;;;;13.40;11.50;;;10.70;99.90;;;;;;10235900;29;20201;-80
2020/12/20 17:03:11;;;;;;;11.80;10.70;;;10.70;99.90;;;;;;10265710;28;20232;-80
2020/12/20 17:08:13;;;;;;;14.17;12.77;;;10.60;99.90;;;;;;10254604;28;20219;-81
2020/12/20 17:13:15;;;;;;;13.40;12.20;;;10.60;99.90;;;;;;10269516;28;20213;-78
2020/12/20 17:18:17;;;;;;;14.03;12.57;;;10.60;99.90;;;;;;10269744;28;20279;-81
2020/12/20 17:23:21;;;;;;;14.33;12.70;;;10.50;99.90;;;;;;10269807;28;20636;-80
2020/12/20 17:28:22;;;;;;;14.37;12.87;;;10.50;99.90;;;;;;10269456;28;20261;-80
2020/12/20 17:33:24;;;;;;;15.17;13.67;;;10.50;99.90;;;;;;10269788;28;20295;-79
2020/12/20 17:38:27;;;;;;;14.43;12.27;;;10.50;99.90;;;;;;10273513;28;20203;-80
2020/12/20 17:43:28;;;;;;;13.67;12.27;;;10.50;99.90;;;;;;10252504;28;20228;-78
2020/12/20 17:48:30;;;;;;;14.47;12.20;;;10.50;99.90;;;;;;10251767;29;20692;-79
2020/12/20 17:53:32;;;;;;;17.43;14.80;;;10.50;99.90;;;;;;10251171;29;20723;-79
2020/12/20 17:58:34;;;;;;;17.63;15.53;;;10.50;99.90;;;;;;10239523;29;20215;-79
2020/12/20 18:03:35;;;;;;;19.57;16.63;;;10.50;99.90;;;;;;10258241;29;20781;-79
2020/12/20 18:08:38;;;;;;;25.53;18.20;;;10.50;99.90;;;;;;10286291;28;20193;-80
2020/12/20 18:13:39;;;;;;;21.57;16.77;;;10.60;99.90;;;;;;10279578;28;20247;-79
2020/12/20 18:18:43;;;;;;;34.50;25.10;;;10.50;99.90;;;;;;10260066;28;20664;-77
2020/12/20 18:23:46;;;;;;;18.97;16.97;;;10.50;99.90;;;;;;10262550;28;20220;-79
2020/12/20 18:28:48;;;;;;;21.77;19.50;;;10.50;99.90;;;;;;10275532;28;20301;-79
2020/12/20 18:33:49;;;;;;;16.80;15.00;;;10.40;99.90;;;;;;10273074;28;20219;-80
2020/12/20 18:38:52;;;;;;;16.57;13.77;;;10.20;99.90;;;;;;10276953;28;20615;-79
2020/12/20 18:43:54;;;;;;;16.73;14.97;;;10.10;99.90;;;;;;10255342;28;20282;-81
2020/12/20 18:48:55;;;;;;;17.20;15.60;;;10.00;99.90;;;;;;10278711;28;20295;-80
2020/12/20 18:54:00;;;;;;;18.43;15.30;;;10.00;99.90;;;;;;10278616;28;20214;-82
2020/12/20 18:59:05;;;;;;;17.60;15.87;;;10.00;99.90;;;;;;10261800;28;20284;-82
2020/12/20 19:04:10;;;;;;;17.90;16.13;;;9.90;99.90;;;;;;10304007;28;20286;-82
2020/12/20 19:09:13;;;;;;;16.37;14.77;;;9.80;99.90;;;;;;10294317;28;20203;-82
2020/12/20 19:14:14;;;;;;;14.97;13.57;;;9.80;99.90;;;;;;10293857;28;20259;-81
2020/12/20 19:19:18;;;;;;;15.20;13.70;;;9.80;99.90;;;;;;10280798;28;20205;-81
2020/12/20 19:24:22;;;;;;;16.40;14.70;;;9.80;99.90;;;;;;10232930;28;20666;-80
2020/12/20 19:29:24;;;;;;;16.67;14.97;;;9.70;99.90;;;;;;10251441;29;20197;-81
2020/12/20 19:34:27;;;;;;;18.70;16.87;;;9.80;99.90;;;;;;10255708;28;20641;-81
2020/12/20 19:39:29;;;;;;;19.83;17.93;;;9.70;99.90;;;;;;10263455;29;20551;-80
2020/12/20 19:44:32;;;;;;;21.07;18.87;;;9.70;99.90;;;;;;10272868;28;20247;-82
2020/12/20 19:49:34;;;;;;;19.73;17.73;;;9.80;99.90;;;;;;10242859;29;20200;-83
2020/12/20 19:54:36;;;;;;;20.53;17.93;;;9.80;99.90;;;;;;10313009;28;20223;-82
2020/12/20 19:59:38;;;;;;;19.10;17.20;;;9.70;99.90;;;;;;10238336;29;20213;-83
2020/12/20 20:04:40;;;;;;;18.80;16.97;;;9.70;99.90;;;;;;10240544;28;20282;-83
2020/12/20 20:09:42;;;;;;;18.63;16.70;;;9.70;99.90;;;;;;10236047;29;20251;-81
2020/12/20 20:14:44;;;;;;;16.97;14.90;;;9.70;99.90;;;;;;10275430;28;20223;-80
2020/12/20 20:19:46;;;;;;;17.57;15.87;;;9.60;99.90;;;;;;10259543;28;21004;-82
2020/12/20 20:24:48;;;;;;;18.00;16.30;;;9.60;99.90;;;;;;10278905;28;20251;-81
2020/12/20 20:29:53;;;;;;;18.93;16.93;;;9.50;99.90;;;;;;10277989;28;20215;-81
2020/12/20 20:34:55;;;;;;;17.47;15.70;;;9.50;99.90;;;;;;10275086;28;20216;-82
2020/12/20 20:39:57;;;;;;;17.40;15.60;;;9.40;99.90;;;;;;10294641;28;20564;-81
2020/12/20 20:44:59;;;;;;;19.60;17.60;;;9.40;99.90;;;;;;10258116;28;20231;-82
2020/12/20 20:50:00;;;;;;;18.87;16.87;;;9.40;99.90;;;;;;10274177;28;20658;-83
2020/12/20 20:55:03;;;;;;;19.07;17.20;;;9.30;99.90;;;;;;10294931;28;20204;-81
2020/12/20 21:00:07;;;;;;;19.53;16.77;;;9.30;99.90;;;;;;10316545;28;20206;-81
2020/12/20 21:05:08;;;;;;;18.60;16.70;;;9.30;99.90;;;;;;10286002;28;20603;-80
2020/12/20 21:10:11;;;;;;;19.20;17.40;;;9.30;99.90;;;;;;10297362;28;20278;-80
2020/12/20 21:15:13;;;;;;;18.40;16.60;;;9.20;99.90;;;;;;10275953;28;20731;-82
2020/12/20 21:20:14;;;;;;;17.60;15.77;;;9.20;99.90;;;;;;10259509;28;20306;-81
2020/12/20 21:25:17;;;;;;;19.73;17.17;;;9.20;99.90;;;;;;10275481;28;20251;-82
2020/12/20 21:30:19;;;;;;;16.10;14.50;;;9.20;99.90;;;;;;10258586;28;20302;-81
2020/12/20 21:35:20;;;;;;;15.20;13.70;;;9.10;99.90;;;;;;10284443;28;20207;-82
2020/12/20 21:40:23;;;;;;;14.30;12.90;;;9.10;99.90;;;;;;10284283;28;20275;-81
2020/12/20 21:45:25;;;;;;;14.73;13.13;;;9.00;99.90;;;;;;10302249;28;20227;-82
2020/12/20 21:50:26;;;;;;;15.03;13.43;;;9.00;99.90;;;;;;10284241;28;20239;-81
2020/12/20 21:55:29;;;;;;;17.03;15.43;;;9.10;99.90;;;;;;10289321;28;20618;-81
2020/12/20 22:00:31;;;;;;;16.20;14.60;;;9.10;99.90;;;;;;10229883;29;20296;-82
2020/12/20 22:05:34;;;;;;;15.63;14.10;;;9.10;99.90;;;;;;10239032;28;20258;-81
2020/12/20 22:10:37;;;;;;;16.57;14.87;;;9.00;99.90;;;;;;10293068;28;20295;-82
2020/12/20 22:15:39;;;;;;;14.20;12.80;;;9.00;99.90;;;;;;10301055;28;20635;-81
2020/12/20 22:20:40;;;;;;;15.60;14.03;;;8.90;99.90;;;;;;10300674;23;20227;-80
2020/12/20 22:25:44;;;;;;;16.23;14.63;;;8.90;99.90;;;;;;10222135;29;20759;-79
2020/12/20 22:30:45;;;;;;;15.17;13.77;;;8.90;99.90;;;;;;10256643;29;20646;-80
2020/12/20 22:35:47;;;;;;;15.67;14.17;;;9.00;99.90;;;;;;10192484;29;20206;-80
2020/12/20 22:40:49;;;;;;;16.00;14.40;;;9.00;99.90;;;;;;10165022;29;20281;-81
2020/12/20 22:45:51;;;;;;;15.70;14.20;;;9.00;99.90;;;;;;10193103;29;20213;-81
2020/12/20 22:50:53;;;;;;;15.00;13.60;;;9.00;99.90;;;;;;10202664;29;20259;-81
2020/12/20 22:55:55;;;;;;;14.47;13.07;;;9.00;99.90;;;;;;10189415;29;20202;-81
2020/12/20 23:00:57;;;;;;;16.50;13.97;;;9.00;99.90;;;;;;10178920;29;20237;-81
2020/12/20 23:05:58;;;;;;;13.50;12.20;;;9.00;99.90;;;;;;10206500;29;20205;-80
2020/12/20 23:11:01;;;;;;;13.50;12.10;;;9.00;99.90;;;;;;10205318;29;20218;-81
2020/12/20 23:16:02;;;;;;;13.43;12.20;;;9.10;99.90;;;;;;10183690;29;20204;-80
2020/12/20 23:21:04;;;;;;;12.20;11.10;;;9.10;99.90;;;;;;10179663;29;20232;-80
2020/12/20 23:26:07;;;;;;;12.43;10.83;;;9.10;99.90;;;;;;10145242;29;20605;-80
2020/12/20 23:31:08;;;;;;;10.57;9.57;;;9.10;99.90;;;;;;10161812;29;20710;-80
2020/12/20 23:36:10;;;;;;;9.53;8.63;;;9.20;99.90;;;;;;10142415;29;20580;-81
2020/12/20 23:41:13;;;;;;;8.13;7.33;;;9.20;99.90;;;;;;10174404;29;20226;-80
2020/12/20 23:46:18;;;;;;;7.33;6.70;;;9.20;99.90;;;;;;10178977;29;20208;-81
2020/12/20 23:51:20;;;;;;;6.20;5.60;;;9.20;99.90;;;;;;10174189;29;20225;-80
2020/12/20 23:56:23;;;;;;;6.37;5.77;;;9.20;99.90;;;;;;10175309;29;20225;-80
